sensor_id;sensor_type;location;lat;lon;timestamp;temperature;humidity
6662;DHT22;3367;48.714;8.994;2022-11-15T00:00:46;6.50;99.90
6662;DHT22;3367;48.714;8.994;2022-11-15T00:03:14;6.40;99.90
6662;DHT22;3367;48.714;8.994;2022-11-15T00:05:41;6.30;99.90
6662;DHT22;3367;48.714;8.994;2022-11-15T00:08:08;6.30;99.90
6662;DHT22;3367;48.714;8.994;2022-11-15T00:10:36;6.20;99.90
6662;DHT22;3367;48.714;8.994;2022-11-15T00:13:06;6.10;99.90
6662;DHT22;3367;48.714;8.994;2022-11-15T00:15:35;6.10;99.90
6662;DHT22;3367;48.714;8.994;2022-11-15T00:18:03;6.10;1.00
6662;DHT22;3367;48.714;8.994;2022-11-15T00:20:30;6.00;1.00
6662;DHT22;3367;48.714;8.994;2022-11-15T00:22:57;6.00;1.00
6662;DHT22;3367;48.714;8.994;2022-11-15T00:25:23;6.00;1.00
6662;DHT22;3367;48.714;8.994;2022-11-15T00:27:54;6.00;1.00
6662;DHT22;3367;48.714;8.994;2022-11-15T00:30:22;6.00;1.00
6662;DHT22;3367;48.714;8.994;2022-11-15T00:32:50;5.90;1.00
6662;DHT22;3367;48.714;8.994;2022-11-15T00:35:17;5.80;1.00
6662;DHT22;3367;48.714;8.994;2022-11-15T00:37:44;5.80;1.00
6662;DHT22;3367;48.714;8.994;2022-11-15T00:40:13;5.80;1.00
6662;DHT22;3367;48.714;8.994;2022-11-15T00:42:41;5.70;1.00
6662;DHT22;3367;48.714;8.994;2022-11-15T00:45:09;5.70;22.40
6662;DHT22;3367;48.714;8.994;2022-11-15T00:47:37;5.70;1.00
6662;DHT22;3367;48.714;8.994;2022-11-15T00:50:05;5.70;1.00
6662;DHT22;3367;48.714;8.994;2022-11-15T00:52:32;5.60;1.00
6662;DHT22;3367;48.714;8.994;2022-11-15T00:54:59;5.70;99.90
6662;DHT22;3367;48.714;8.994;2022-11-15T00:57:26;5.70;99.90
6662;DHT22;3367;48.714;8.994;2022-11-15T00:59:52;5.60;10.90
6662;DHT22;3367;48.714;8.994;2022-11-15T01:05:11;5.50;1.00
6662;DHT22;3367;48.714;8.994;2022-11-15T01:07:37;5.50;99.90
6662;DHT22;3367;48.714;8.994;2022-11-15T01:10:10;5.40;52.80
6662;DHT22;3367;48.714;8.994;2022-11-15T01:12:37;5.30;99.90
6662;DHT22;3367;48.714;8.994;2022-11-15T01:15:05;5.30;99.90
6662;DHT22;3367;48.714;8.994;2022-11-15T01:17:34;5.20;99.90
6662;DHT22;3367;48.714;8.994;2022-11-15T01:20:01;5.20;99.90
6662;DHT22;3367;48.714;8.994;2022-11-15T01:22:30;5.20;99.90
6662;DHT22;3367;48.714;8.994;2022-11-15T01:25:00;5.10;1.00
6662;DHT22;3367;48.714;8.994;2022-11-15T01:27:27;5.10;1.00
6662;DHT22;3367;48.714;8.994;2022-11-15T01:29:54;5.10;1.00
6662;DHT22;3367;48.714;8.994;2022-11-15T01:32:21;5.10;1.00
6662;DHT22;3367;48.714;8.994;2022-11-15T01:34:48;5.10;1.00
6662;DHT22;3367;48.714;8.994;2022-11-15T01:37:15;5.20;1.00
6662;DHT22;3367;48.714;8.994;2022-11-15T01:39:43;5.20;1.00
6662;DHT22;3367;48.714;8.994;2022-11-15T01:42:12;5.20;1.00
6662;DHT22;3367;48.714;8.994;2022-11-15T01:44:42;5.20;1.00
6662;DHT22;3367;48.714;8.994;2022-11-15T01:47:12;5.30;1.00
6662;DHT22;3367;48.714;8.994;2022-11-15T01:49:49;5.30;1.00
6662;DHT22;3367;48.714;8.994;2022-11-15T01:52:20;5.40;37.40
6662;DHT22;3367;48.714;8.994;2022-11-15T01:54:53;5.50;68.00
6662;DHT22;3367;48.714;8.994;2022-11-15T01:57:21;5.60;1.00
6662;DHT22;3367;48.714;8.994;2022-11-15T01:59:49;5.60;1.00
6662;DHT22;3367;48.714;8.994;2022-11-15T02:02:16;5.60;1.00
6662;DHT22;3367;48.714;8.994;2022-11-15T02:04:45;5.60;1.00
6662;DHT22;3367;48.714;8.994;2022-11-15T02:07:15;5.60;1.00
6662;DHT22;3367;48.714;8.994;2022-11-15T02:09:43;5.50;1.00
6662;DHT22;3367;48.714;8.994;2022-11-15T02:12:14;5.50;1.00
6662;DHT22;3367;48.714;8.994;2022-11-15T02:14:43;5.50;1.00
6662;DHT22;3367;48.714;8.994;2022-11-15T02:17:26;5.50;1.00
6662;DHT22;3367;48.714;8.994;2022-11-15T02:20:14;5.50;1.00
6662;DHT22;3367;48.714;8.994;2022-11-15T02:22:57;5.60;1.00
6662;DHT22;3367;48.714;8.994;2022-11-15T02:25:39;5.70;1.00
6662;DHT22;3367;48.714;8.994;2022-11-15T02:28:23;5.70;1.00
6662;DHT22;3367;48.714;8.994;2022-11-15T02:30:55;5.70;1.00
6662;DHT22;3367;48.714;8.994;2022-11-15T02:33:31;5.80;1.00
6662;DHT22;3367;48.714;8.994;2022-11-15T02:36:02;5.90;1.00
6662;DHT22;3367;48.714;8.994;2022-11-15T02:38:39;5.90;1.00
6662;DHT22;3367;48.714;8.994;2022-11-15T02:41:10;6.00;1.00
6662;DHT22;3367;48.714;8.994;2022-11-15T02:43:40;6.00;1.00
6662;DHT22;3367;48.714;8.994;2022-11-15T02:46:28;6.00;99.90
6662;DHT22;3367;48.714;8.994;2022-11-15T02:49:16;6.00;99.90
6662;DHT22;3367;48.714;8.994;2022-11-15T02:51:45;6.00;99.90
6662;DHT22;3367;48.714;8.994;2022-11-15T02:54:19;6.00;99.90
6662;DHT22;3367;48.714;8.994;2022-11-15T02:56:47;5.90;99.90
6662;DHT22;3367;48.714;8.994;2022-11-15T02:59:46;6.00;99.90
6662;DHT22;3367;48.714;8.994;2022-11-15T03:02:32;6.00;42.50
6662;DHT22;3367;48.714;8.994;2022-11-15T03:05:06;6.00;1.00
6662;DHT22;3367;48.714;8.994;2022-11-15T03:07:39;5.90;1.00
6662;DHT22;3367;48.714;8.994;2022-11-15T03:10:10;5.90;1.00
6662;DHT22;3367;48.714;8.994;2022-11-15T03:12:42;5.90;1.00
6662;DHT22;3367;48.714;8.994;2022-11-15T03:15:15;5.90;1.00
6662;DHT22;3367;48.714;8.994;2022-11-15T03:17:50;6.00;1.00
6662;DHT22;3367;48.714;8.994;2022-11-15T03:20:19;6.10;1.00
6662;DHT22;3367;48.714;8.994;2022-11-15T03:22:47;6.10;1.00
6662;DHT22;3367;48.714;8.994;2022-11-15T03:25:18;6.10;1.00
6662;DHT22;3367;48.714;8.994;2022-11-15T03:27:50;6.20;1.00
6662;DHT22;3367;48.714;8.994;2022-11-15T03:30:18;6.20;99.90
6662;DHT22;3367;48.714;8.994;2022-11-15T03:32:50;6.20;99.90
6662;DHT22;3367;48.714;8.994;2022-11-15T03:35:20;6.20;99.90
6662;DHT22;3367;48.714;8.994;2022-11-15T03:37:53;6.20;99.90
6662;DHT22;3367;48.714;8.994;2022-11-15T03:40:25;6.10;99.90
6662;DHT22;3367;48.714;8.994;2022-11-15T03:43:00;6.20;1.00
6662;DHT22;3367;48.714;8.994;2022-11-15T03:45:31;6.10;99.90
6662;DHT22;3367;48.714;8.994;2022-11-15T03:48:05;6.10;1.00
6662;DHT22;3367;48.714;8.994;2022-11-15T03:50:35;6.00;1.00
6662;DHT22;3367;48.714;8.994;2022-11-15T03:53:02;6.10;1.00
6662;DHT22;3367;48.714;8.994;2022-11-15T03:55:31;6.10;1.00
6662;DHT22;3367;48.714;8.994;2022-11-15T03:58:00;6.00;1.00
6662;DHT22;3367;48.714;8.994;2022-11-15T04:00:28;6.00;1.00
6662;DHT22;3367;48.714;8.994;2022-11-15T04:02:55;6.00;1.00
6662;DHT22;3367;48.714;8.994;2022-11-15T04:05:23;6.10;1.00
6662;DHT22;3367;48.714;8.994;2022-11-15T04:07:53;6.00;1.00
6662;DHT22;3367;48.714;8.994;2022-11-15T04:10:20;6.10;1.00
6662;DHT22;3367;48.714;8.994;2022-11-15T04:12:47;6.10;1.00
6662;DHT22;3367;48.714;8.994;2022-11-15T04:15:19;6.20;1.00
6662;DHT22;3367;48.714;8.994;2022-11-15T04:17:48;6.30;1.00
6662;DHT22;3367;48.714;8.994;2022-11-15T04:20:21;6.30;1.00
6662;DHT22;3367;48.714;8.994;2022-11-15T04:23:09;6.30;99.90
6662;DHT22;3367;48.714;8.994;2022-11-15T04:25:56;6.30;99.90
6662;DHT22;3367;48.714;8.994;2022-11-15T04:28:24;6.30;99.90
6662;DHT22;3367;48.714;8.994;2022-11-15T04:30:52;6.40;99.90
6662;DHT22;3367;48.714;8.994;2022-11-15T04:33:19;6.40;99.90
6662;DHT22;3367;48.714;8.994;2022-11-15T04:35:46;6.40;99.90
6662;DHT22;3367;48.714;8.994;2022-11-15T04:38:34;6.40;99.90
6662;DHT22;3367;48.714;8.994;2022-11-15T04:41:02;6.40;99.90
6662;DHT22;3367;48.714;8.994;2022-11-15T04:43:28;6.40;38.60
6662;DHT22;3367;48.714;8.994;2022-11-15T04:45:55;6.40;99.90
6662;DHT22;3367;48.714;8.994;2022-11-15T04:48:22;6.40;99.90
6662;DHT22;3367;48.714;8.994;2022-11-15T04:50:49;6.40;99.90
6662;DHT22;3367;48.714;8.994;2022-11-15T04:53:16;6.30;99.90
6662;DHT22;3367;48.714;8.994;2022-11-15T04:55:45;6.30;99.90
6662;DHT22;3367;48.714;8.994;2022-11-15T04:58:12;6.20;99.90
6662;DHT22;3367;48.714;8.994;2022-11-15T05:00:39;6.20;99.90
6662;DHT22;3367;48.714;8.994;2022-11-15T05:03:06;6.10;99.90
6662;DHT22;3367;48.714;8.994;2022-11-15T05:05:50;6.10;99.90
6662;DHT22;3367;48.714;8.994;2022-11-15T05:08:17;6.00;1.00
6662;DHT22;3367;48.714;8.994;2022-11-15T05:10:45;5.90;1.00
6662;DHT22;3367;48.714;8.994;2022-11-15T05:13:12;5.90;1.00
6662;DHT22;3367;48.714;8.994;2022-11-15T05:15:38;5.90;1.00
6662;DHT22;3367;48.714;8.994;2022-11-15T05:18:05;5.90;1.00
6662;DHT22;3367;48.714;8.994;2022-11-15T05:20:32;5.90;1.00
6662;DHT22;3367;48.714;8.994;2022-11-15T05:22:59;5.90;99.90
6662;DHT22;3367;48.714;8.994;2022-11-15T05:25:26;5.90;99.90
6662;DHT22;3367;48.714;8.994;2022-11-15T05:27:54;6.00;99.90
6662;DHT22;3367;48.714;8.994;2022-11-15T05:30:21;6.00;99.90
6662;DHT22;3367;48.714;8.994;2022-11-15T05:32:48;6.10;99.90
6662;DHT22;3367;48.714;8.994;2022-11-15T05:35:20;6.10;99.90
6662;DHT22;3367;48.714;8.994;2022-11-15T05:37:48;6.10;99.90
6662;DHT22;3367;48.714;8.994;2022-11-15T05:40:16;6.00;99.90
6662;DHT22;3367;48.714;8.994;2022-11-15T05:42:42;6.00;99.90
6662;DHT22;3367;48.714;8.994;2022-11-15T05:45:11;6.00;99.90
6662;DHT22;3367;48.714;8.994;2022-11-15T05:47:39;6.00;99.90
6662;DHT22;3367;48.714;8.994;2022-11-15T05:50:07;5.90;99.90
6662;DHT22;3367;48.714;8.994;2022-11-15T05:52:35;5.90;99.90
6662;DHT22;3367;48.714;8.994;2022-11-15T05:55:05;5.90;99.90
6662;DHT22;3367;48.714;8.994;2022-11-15T05:57:33;5.80;99.90
6662;DHT22;3367;48.714;8.994;2022-11-15T06:00:00;5.80;99.90
6662;DHT22;3367;48.714;8.994;2022-11-15T06:02:28;5.70;99.90
6662;DHT22;3367;48.714;8.994;2022-11-15T06:04:55;5.70;99.90
6662;DHT22;3367;48.714;8.994;2022-11-15T06:07:22;5.60;99.90
6662;DHT22;3367;48.714;8.994;2022-11-15T06:09:49;5.60;99.90
6662;DHT22;3367;48.714;8.994;2022-11-15T06:12:15;5.50;99.90
6662;DHT22;3367;48.714;8.994;2022-11-15T06:14:42;5.40;99.90
6662;DHT22;3367;48.714;8.994;2022-11-15T06:17:09;5.40;99.90
6662;DHT22;3367;48.714;8.994;2022-11-15T06:19:37;5.40;99.90
6662;DHT22;3367;48.714;8.994;2022-11-15T06:22:04;5.40;1.00
6662;DHT22;3367;48.714;8.994;2022-11-15T06:24:30;5.40;1.00
6662;DHT22;3367;48.714;8.994;2022-11-15T06:26:57;5.40;1.00
6662;DHT22;3367;48.714;8.994;2022-11-15T06:29:24;5.50;1.00
6662;DHT22;3367;48.714;8.994;2022-11-15T06:31:51;5.40;1.00
6662;DHT22;3367;48.714;8.994;2022-11-15T06:34:18;5.50;1.00
6662;DHT22;3367;48.714;8.994;2022-11-15T06:36:46;5.50;1.00
6662;DHT22;3367;48.714;8.994;2022-11-15T06:39:13;5.50;1.00
6662;DHT22;3367;48.714;8.994;2022-11-15T06:41:45;5.50;1.00
6662;DHT22;3367;48.714;8.994;2022-11-15T06:44:12;5.50;1.00
6662;DHT22;3367;48.714;8.994;2022-11-15T06:46:48;5.50;1.00
6662;DHT22;3367;48.714;8.994;2022-11-15T06:49:14;5.60;1.00
6662;DHT22;3367;48.714;8.994;2022-11-15T06:51:42;5.60;1.00
6662;DHT22;3367;48.714;8.994;2022-11-15T06:54:11;5.70;1.00
6662;DHT22;3367;48.714;8.994;2022-11-15T06:56:37;5.80;1.00
6662;DHT22;3367;48.714;8.994;2022-11-15T06:59:04;6.00;1.00
6662;DHT22;3367;48.714;8.994;2022-11-15T07:01:31;6.00;1.00
6662;DHT22;3367;48.714;8.994;2022-11-15T07:03:58;6.10;1.00
6662;DHT22;3367;48.714;8.994;2022-11-15T07:06:28;6.20;1.00
6662;DHT22;3367;48.714;8.994;2022-11-15T07:09:20;6.20;99.90
6662;DHT22;3367;48.714;8.994;2022-11-15T07:11:47;6.30;99.90
6662;DHT22;3367;48.714;8.994;2022-11-15T07:14:14;6.40;99.20
6662;DHT22;3367;48.714;8.994;2022-11-15T07:16:40;6.50;1.00
6662;DHT22;3367;48.714;8.994;2022-11-15T07:19:08;6.50;1.00
6662;DHT22;3367;48.714;8.994;2022-11-15T07:21:35;6.60;1.00
6662;DHT22;3367;48.714;8.994;2022-11-15T07:24:01;6.70;1.00
6662;DHT22;3367;48.714;8.994;2022-11-15T07:26:30;6.80;1.00
6662;DHT22;3367;48.714;8.994;2022-11-15T07:28:57;6.90;99.90
6662;DHT22;3367;48.714;8.994;2022-11-15T07:31:24;7.10;1.00
6662;DHT22;3367;48.714;8.994;2022-11-15T07:33:50;7.30;1.00
6662;DHT22;3367;48.714;8.994;2022-11-15T07:36:17;7.30;99.90
6662;DHT22;3367;48.714;8.994;2022-11-15T07:38:44;7.50;1.00
6662;DHT22;3367;48.714;8.994;2022-11-15T07:41:11;7.60;99.90
6662;DHT22;3367;48.714;8.994;2022-11-15T07:43:40;7.60;99.90
6662;DHT22;3367;48.714;8.994;2022-11-15T07:46:08;7.70;1.00
6662;DHT22;3367;48.714;8.994;2022-11-15T07:48:35;7.90;1.00
6662;DHT22;3367;48.714;8.994;2022-11-15T07:51:02;8.00;1.00
6662;DHT22;3367;48.714;8.994;2022-11-15T07:53:29;8.10;99.90
6662;DHT22;3367;48.714;8.994;2022-11-15T07:55:56;8.20;99.90
6662;DHT22;3367;48.714;8.994;2022-11-15T07:58:23;8.20;99.90
6662;DHT22;3367;48.714;8.994;2022-11-15T08:00:51;8.30;99.90
6662;DHT22;3367;48.714;8.994;2022-11-15T08:03:18;8.40;99.90
6662;DHT22;3367;48.714;8.994;2022-11-15T08:05:50;8.40;1.00
6662;DHT22;3367;48.714;8.994;2022-11-15T08:08:17;8.50;1.00
6662;DHT22;3367;48.714;8.994;2022-11-15T08:10:44;8.60;1.00
6662;DHT22;3367;48.714;8.994;2022-11-15T08:13:12;8.70;1.00
6662;DHT22;3367;48.714;8.994;2022-11-15T08:15:39;8.60;1.00
6662;DHT22;3367;48.714;8.994;2022-11-15T08:18:11;8.70;1.00
6662;DHT22;3367;48.714;8.994;2022-11-15T08:20:38;8.80;1.00
6662;DHT22;3367;48.714;8.994;2022-11-15T08:23:05;8.80;1.00
6662;DHT22;3367;48.714;8.994;2022-11-15T08:25:34;9.00;1.00
6662;DHT22;3367;48.714;8.994;2022-11-15T08:28:03;9.10;1.00
6662;DHT22;3367;48.714;8.994;2022-11-15T08:30:33;9.30;99.90
6662;DHT22;3367;48.714;8.994;2022-11-15T08:33:01;9.60;1.00
6662;DHT22;3367;48.714;8.994;2022-11-15T08:35:29;9.80;1.00
6662;DHT22;3367;48.714;8.994;2022-11-15T08:37:56;10.00;99.90
6662;DHT22;3367;48.714;8.994;2022-11-15T08:40:23;10.30;99.90
6662;DHT22;3367;48.714;8.994;2022-11-15T08:42:50;10.40;99.90
6662;DHT22;3367;48.714;8.994;2022-11-15T08:45:17;10.60;38.80
6662;DHT22;3367;48.714;8.994;2022-11-15T08:47:44;10.80;1.00
6662;DHT22;3367;48.714;8.994;2022-11-15T08:50:11;10.90;1.00
6662;DHT22;3367;48.714;8.994;2022-11-15T08:52:39;11.10;1.00
6662;DHT22;3367;48.714;8.994;2022-11-15T08:55:06;11.20;1.00
6662;DHT22;3367;48.714;8.994;2022-11-15T08:57:33;11.30;1.00
6662;DHT22;3367;48.714;8.994;2022-11-15T09:00:00;11.30;1.00
6662;DHT22;3367;48.714;8.994;2022-11-15T09:02:27;11.30;1.00
6662;DHT22;3367;48.714;8.994;2022-11-15T09:04:53;11.30;91.60
6662;DHT22;3367;48.714;8.994;2022-11-15T09:07:20;11.30;29.60
6662;DHT22;3367;48.714;8.994;2022-11-15T09:09:48;11.30;1.00
6662;DHT22;3367;48.714;8.994;2022-11-15T09:12:15;11.30;99.90
6662;DHT22;3367;48.714;8.994;2022-11-15T09:14:42;11.40;1.00
6662;DHT22;3367;48.714;8.994;2022-11-15T09:17:09;11.40;1.00
6662;DHT22;3367;48.714;8.994;2022-11-15T09:19:35;11.40;1.00
6662;DHT22;3367;48.714;8.994;2022-11-15T09:22:05;11.40;1.00
6662;DHT22;3367;48.714;8.994;2022-11-15T09:24:33;11.40;1.00
6662;DHT22;3367;48.714;8.994;2022-11-15T09:27:01;11.40;1.00
6662;DHT22;3367;48.714;8.994;2022-11-15T09:29:28;11.30;1.00
6662;DHT22;3367;48.714;8.994;2022-11-15T09:31:54;11.20;1.00
6662;DHT22;3367;48.714;8.994;2022-11-15T09:34:21;11.20;1.00
6662;DHT22;3367;48.714;8.994;2022-11-15T09:36:48;11.20;1.00
6662;DHT22;3367;48.714;8.994;2022-11-15T09:39:15;11.30;1.00
6662;DHT22;3367;48.714;8.994;2022-11-15T09:41:58;11.50;1.00
6662;DHT22;3367;48.714;8.994;2022-11-15T09:44:41;11.70;1.00
6662;DHT22;3367;48.714;8.994;2022-11-15T09:47:25;11.80;1.00
6662;DHT22;3367;48.714;8.994;2022-11-15T09:49:56;11.90;1.00
6662;DHT22;3367;48.714;8.994;2022-11-15T09:52:24;12.00;1.00
6662;DHT22;3367;48.714;8.994;2022-11-15T09:54:52;12.00;1.00
6662;DHT22;3367;48.714;8.994;2022-11-15T10:00:20;12.20;1.00
6662;DHT22;3367;48.714;8.994;2022-11-15T10:02:59;12.20;1.00
6662;DHT22;3367;48.714;8.994;2022-11-15T10:05:29;12.20;1.00
6662;DHT22;3367;48.714;8.994;2022-11-15T10:08:01;12.20;1.00
6662;DHT22;3367;48.714;8.994;2022-11-15T10:10:32;12.20;1.00
6662;DHT22;3367;48.714;8.994;2022-11-15T10:13:02;12.20;1.00
6662;DHT22;3367;48.714;8.994;2022-11-15T10:15:30;12.30;1.00
6662;DHT22;3367;48.714;8.994;2022-11-15T10:18:13;12.40;1.00
6662;DHT22;3367;48.714;8.994;2022-11-15T10:20:47;12.50;1.00
6662;DHT22;3367;48.714;8.994;2022-11-15T10:23:16;12.60;1.00
6662;DHT22;3367;48.714;8.994;2022-11-15T10:25:43;12.70;1.00
6662;DHT22;3367;48.714;8.994;2022-11-15T10:28:14;12.80;1.00
6662;DHT22;3367;48.714;8.994;2022-11-15T10:30:44;12.90;1.00
6662;DHT22;3367;48.714;8.994;2022-11-15T10:33:17;12.90;99.90
6662;DHT22;3367;48.714;8.994;2022-11-15T10:35:45;12.90;99.90
6662;DHT22;3367;48.714;8.994;2022-11-15T10:38:12;13.00;99.90
6662;DHT22;3367;48.714;8.994;2022-11-15T10:40:40;13.00;99.90
6662;DHT22;3367;48.714;8.994;2022-11-15T10:43:17;13.00;99.90
6662;DHT22;3367;48.714;8.994;2022-11-15T10:45:46;13.00;99.90
6662;DHT22;3367;48.714;8.994;2022-11-15T10:48:24;12.90;99.90
6662;DHT22;3367;48.714;8.994;2022-11-15T10:50:53;12.90;99.90
6662;DHT22;3367;48.714;8.994;2022-11-15T10:53:27;13.00;1.00
6662;DHT22;3367;48.714;8.994;2022-11-15T10:55:58;12.90;1.00
6662;DHT22;3367;48.714;8.994;2022-11-15T10:58:34;12.90;1.00
6662;DHT22;3367;48.714;8.994;2022-11-15T11:01:14;12.80;1.00
6662;DHT22;3367;48.714;8.994;2022-11-15T11:03:43;12.90;1.00
6662;DHT22;3367;48.714;8.994;2022-11-15T11:06:13;12.80;99.90
6662;DHT22;3367;48.714;8.994;2022-11-15T11:08:40;12.80;1.00
6662;DHT22;3367;48.714;8.994;2022-11-15T11:11:07;12.80;1.00
6662;DHT22;3367;48.714;8.994;2022-11-15T11:13:36;12.80;1.00
6662;DHT22;3367;48.714;8.994;2022-11-15T11:16:34;12.90;1.00
6662;DHT22;3367;48.714;8.994;2022-11-15T11:19:13;13.00;1.00
6662;DHT22;3367;48.714;8.994;2022-11-15T11:24:34;13.20;99.90
6662;DHT22;3367;48.714;8.994;2022-11-15T11:27:13;13.30;99.90
6662;DHT22;3367;48.714;8.994;2022-11-15T11:29:54;13.40;99.90
6662;DHT22;3367;48.714;8.994;2022-11-15T11:32:57;13.30;99.90
6662;DHT22;3367;48.714;8.994;2022-11-15T11:35:30;13.30;99.90
6662;DHT22;3367;48.714;8.994;2022-11-15T11:38:10;13.40;99.90
6662;DHT22;3367;48.714;8.994;2022-11-15T11:40:43;13.40;99.90
6662;DHT22;3367;48.714;8.994;2022-11-15T11:43:17;13.40;99.90
6662;DHT22;3367;48.714;8.994;2022-11-15T11:46:05;13.40;99.90
6662;DHT22;3367;48.714;8.994;2022-11-15T11:48:42;13.50;99.90
6662;DHT22;3367;48.714;8.994;2022-11-15T11:51:15;13.60;99.90
6662;DHT22;3367;48.714;8.994;2022-11-15T11:53:48;13.60;99.90
6662;DHT22;3367;48.714;8.994;2022-11-15T11:56:24;13.70;99.90
6662;DHT22;3367;48.714;8.994;2022-11-15T11:58:54;13.80;99.90
6662;DHT22;3367;48.714;8.994;2022-11-15T12:01:23;13.90;99.90
6662;DHT22;3367;48.714;8.994;2022-11-15T12:03:56;14.00;99.90
6662;DHT22;3367;48.714;8.994;2022-11-15T12:06:30;13.90;99.90
6662;DHT22;3367;48.714;8.994;2022-11-15T12:09:02;14.00;99.90
6662;DHT22;3367;48.714;8.994;2022-11-15T12:11:36;14.00;99.90
6662;DHT22;3367;48.714;8.994;2022-11-15T12:14:08;13.90;99.90
6662;DHT22;3367;48.714;8.994;2022-11-15T12:16:42;13.90;99.90
6662;DHT22;3367;48.714;8.994;2022-11-15T12:19:10;13.90;99.90
6662;DHT22;3367;48.714;8.994;2022-11-15T12:21:41;13.90;99.90
6662;DHT22;3367;48.714;8.994;2022-11-15T12:24:14;13.80;99.90
6662;DHT22;3367;48.714;8.994;2022-11-15T12:26:48;13.80;99.90
6662;DHT22;3367;48.714;8.994;2022-11-15T12:29:20;13.80;99.90
6662;DHT22;3367;48.714;8.994;2022-11-15T12:31:50;13.80;99.90
6662;DHT22;3367;48.714;8.994;2022-11-15T12:34:41;13.70;99.90
6662;DHT22;3367;48.714;8.994;2022-11-15T12:37:34;13.70;99.90
6662;DHT22;3367;48.714;8.994;2022-11-15T12:40:27;13.60;99.90
6662;DHT22;3367;48.714;8.994;2022-11-15T12:43:03;13.60;99.90
6662;DHT22;3367;48.714;8.994;2022-11-15T12:45:35;13.60;99.90
6662;DHT22;3367;48.714;8.994;2022-11-15T12:55:00;13.70;99.90
6662;DHT22;3367;48.714;8.994;2022-11-15T12:57:40;13.70;99.90
6662;DHT22;3367;48.714;8.994;2022-11-15T13:08:58;13.50;99.90
6662;DHT22;3367;48.714;8.994;2022-11-15T13:11:47;13.50;99.90
6662;DHT22;3367;48.714;8.994;2022-11-15T13:14:43;13.50;99.90
6662;DHT22;3367;48.714;8.994;2022-11-15T13:17:27;13.50;99.90
6662;DHT22;3367;48.714;8.994;2022-11-15T13:19:59;13.50;99.90
6662;DHT22;3367;48.714;8.994;2022-11-15T13:22:26;13.50;99.90
6662;DHT22;3367;48.714;8.994;2022-11-15T13:25:33;13.50;99.90
6662;DHT22;3367;48.714;8.994;2022-11-15T13:28:17;13.50;99.90
6662;DHT22;3367;48.714;8.994;2022-11-15T13:30:50;13.50;99.90
6662;DHT22;3367;48.714;8.994;2022-11-15T13:33:20;13.40;99.90
6662;DHT22;3367;48.714;8.994;2022-11-15T13:35:50;13.30;1.00
6662;DHT22;3367;48.714;8.994;2022-11-15T13:38:26;13.30;1.00
6662;DHT22;3367;48.714;8.994;2022-11-15T13:40:53;13.20;1.00
6662;DHT22;3367;48.714;8.994;2022-11-15T13:43:27;13.20;1.00
6662;DHT22;3367;48.714;8.994;2022-11-15T13:46:10;13.10;1.00
6662;DHT22;3367;48.714;8.994;2022-11-15T13:48:38;13.10;1.00
6662;DHT22;3367;48.714;8.994;2022-11-15T13:51:10;13.10;1.00
6662;DHT22;3367;48.714;8.994;2022-11-15T13:53:43;13.00;1.00
6662;DHT22;3367;48.714;8.994;2022-11-15T13:56:12;13.00;1.00
6662;DHT22;3367;48.714;8.994;2022-11-15T13:58:41;12.90;1.00
6662;DHT22;3367;48.714;8.994;2022-11-15T14:01:14;12.90;1.00
6662;DHT22;3367;48.714;8.994;2022-11-15T14:03:47;12.80;1.00
6662;DHT22;3367;48.714;8.994;2022-11-15T14:06:16;12.80;1.00
6662;DHT22;3367;48.714;8.994;2022-11-15T14:11:50;12.80;1.00
6662;DHT22;3367;48.714;8.994;2022-11-15T14:14:20;12.80;1.00
6662;DHT22;3367;48.714;8.994;2022-11-15T14:16:49;12.90;1.00
6662;DHT22;3367;48.714;8.994;2022-11-15T14:19:36;12.80;1.00
6662;DHT22;3367;48.714;8.994;2022-11-15T14:22:24;12.90;1.00
6662;DHT22;3367;48.714;8.994;2022-11-15T14:25:15;12.90;1.00
6662;DHT22;3367;48.714;8.994;2022-11-15T14:27:43;13.00;1.00
6662;DHT22;3367;48.714;8.994;2022-11-15T14:30:16;13.00;1.00
6662;DHT22;3367;48.714;8.994;2022-11-15T14:32:45;12.90;1.00
6662;DHT22;3367;48.714;8.994;2022-11-15T14:35:15;12.90;1.00
6662;DHT22;3367;48.714;8.994;2022-11-15T14:37:43;12.90;1.00
6662;DHT22;3367;48.714;8.994;2022-11-15T14:40:13;12.90;1.00
6662;DHT22;3367;48.714;8.994;2022-11-15T14:42:41;12.80;1.00
6662;DHT22;3367;48.714;8.994;2022-11-15T14:45:12;12.80;1.00
6662;DHT22;3367;48.714;8.994;2022-11-15T14:47:41;12.80;1.00
6662;DHT22;3367;48.714;8.994;2022-11-15T14:50:11;12.70;1.00
6662;DHT22;3367;48.714;8.994;2022-11-15T14:52:38;12.70;1.00
6662;DHT22;3367;48.714;8.994;2022-11-15T14:55:17;12.60;12.00
6662;DHT22;3367;48.714;8.994;2022-11-15T14:57:45;12.60;64.50
6662;DHT22;3367;48.714;8.994;2022-11-15T15:00:13;12.50;1.00
6662;DHT22;3367;48.714;8.994;2022-11-15T15:02:42;12.50;1.00
6662;DHT22;3367;48.714;8.994;2022-11-15T15:05:14;12.50;97.90
6662;DHT22;3367;48.714;8.994;2022-11-15T15:07:41;12.40;99.90
6662;DHT22;3367;48.714;8.994;2022-11-15T15:10:09;12.40;99.90
6662;DHT22;3367;48.714;8.994;2022-11-15T15:12:35;12.30;99.90
6662;DHT22;3367;48.714;8.994;2022-11-15T15:15:02;12.20;1.00
6662;DHT22;3367;48.714;8.994;2022-11-15T15:17:29;12.20;99.90
6662;DHT22;3367;48.714;8.994;2022-11-15T15:19:57;12.20;99.90
6662;DHT22;3367;48.714;8.994;2022-11-15T15:22:26;12.20;99.90
6662;DHT22;3367;48.714;8.994;2022-11-15T15:24:54;12.20;99.90
6662;DHT22;3367;48.714;8.994;2022-11-15T15:27:21;12.20;99.90
6662;DHT22;3367;48.714;8.994;2022-11-15T15:29:48;12.10;99.90
6662;DHT22;3367;48.714;8.994;2022-11-15T15:32:15;12.10;99.90
6662;DHT22;3367;48.714;8.994;2022-11-15T15:34:41;12.10;99.90
6662;DHT22;3367;48.714;8.994;2022-11-15T15:37:28;12.00;99.90
6662;DHT22;3367;48.714;8.994;2022-11-15T15:39:58;12.00;99.90
6662;DHT22;3367;48.714;8.994;2022-11-15T15:42:24;12.00;99.90
6662;DHT22;3367;48.714;8.994;2022-11-15T15:44:51;11.90;99.90
6662;DHT22;3367;48.714;8.994;2022-11-15T15:47:19;11.90;1.00
6662;DHT22;3367;48.714;8.994;2022-11-15T15:49:46;11.80;99.90
6662;DHT22;3367;48.714;8.994;2022-11-15T15:52:13;11.90;99.90
6662;DHT22;3367;48.714;8.994;2022-11-15T15:54:41;11.90;99.90
6662;DHT22;3367;48.714;8.994;2022-11-15T15:57:10;11.80;99.90
6662;DHT22;3367;48.714;8.994;2022-11-15T15:59:38;11.70;99.90
6662;DHT22;3367;48.714;8.994;2022-11-15T16:02:05;11.80;1.00
6662;DHT22;3367;48.714;8.994;2022-11-15T16:04:31;11.70;1.00
6662;DHT22;3367;48.714;8.994;2022-11-15T16:06:59;11.70;99.90
6662;DHT22;3367;48.714;8.994;2022-11-15T16:09:26;11.60;99.90
6662;DHT22;3367;48.714;8.994;2022-11-15T16:12:08;11.70;1.00
6662;DHT22;3367;48.714;8.994;2022-11-15T16:14:34;11.70;99.90
6662;DHT22;3367;48.714;8.994;2022-11-15T16:17:02;11.60;1.00
6662;DHT22;3367;48.714;8.994;2022-11-15T16:19:29;11.60;1.00
6662;DHT22;3367;48.714;8.994;2022-11-15T16:21:56;11.60;1.00
6662;DHT22;3367;48.714;8.994;2022-11-15T16:24:22;11.60;1.00
6662;DHT22;3367;48.714;8.994;2022-11-15T16:26:50;11.60;1.00
6662;DHT22;3367;48.714;8.994;2022-11-15T16:29:19;11.60;1.00
6662;DHT22;3367;48.714;8.994;2022-11-15T16:31:45;11.50;1.00
6662;DHT22;3367;48.714;8.994;2022-11-15T16:34:12;11.50;1.00
6662;DHT22;3367;48.714;8.994;2022-11-15T16:36:39;11.40;1.00
6662;DHT22;3367;48.714;8.994;2022-11-15T16:39:06;11.40;1.00
6662;DHT22;3367;48.714;8.994;2022-11-15T16:41:32;11.40;1.00
6662;DHT22;3367;48.714;8.994;2022-11-15T16:43:59;11.40;1.00
6662;DHT22;3367;48.714;8.994;2022-11-15T16:46:27;11.30;1.00
6662;DHT22;3367;48.714;8.994;2022-11-15T16:48:54;11.40;99.90
6662;DHT22;3367;48.714;8.994;2022-11-15T16:51:21;11.30;1.00
6662;DHT22;3367;48.714;8.994;2022-11-15T16:53:48;11.30;1.00
6662;DHT22;3367;48.714;8.994;2022-11-15T16:56:23;11.20;1.00
6662;DHT22;3367;48.714;8.994;2022-11-15T16:58:50;11.20;1.00
6662;DHT22;3367;48.714;8.994;2022-11-15T17:01:20;11.20;1.00
6662;DHT22;3367;48.714;8.994;2022-11-15T17:03:50;11.20;1.00
6662;DHT22;3367;48.714;8.994;2022-11-15T17:06:17;11.20;1.00
6662;DHT22;3367;48.714;8.994;2022-11-15T17:08:44;11.20;1.00